Map

Track Data

SID SEASON NUMBER BASIN SUBBASIN NAME ISO_TIME NATURE LAT LON WMO_WIND WMO_PRES WMO_AGENCY TRACK_TYPE DIST2LAND LANDFALL IFLAG USA_AGENCY USA_ATCF_ID USA_LAT USA_LON USA_RECORD USA_STATUS USA_WIND USA_PRES USA_SSHS USA_R34_NE USA_R34_SE USA_R34_SW USA_R34_NW USA_R50_NE USA_R50_SE USA_R50_SW USA_R50_NW USA_R64_NE USA_R64_SE USA_R64_SW USA_R64_NW USA_POCI USA_ROCI USA_RMW USA_EYE TOKYO_LAT TOKYO_LON TOKYO_GRADE TOKYO_WIND TOKYO_PRES TOKYO_R50_DIR TOKYO_R50_LONG TOKYO_R50_SHORT TOKYO_R30_DIR TOKYO_R30_LONG TOKYO_R30_SHORT TOKYO_LAND CMA_LAT CMA_LON CMA_CAT CMA_WIND CMA_PRES HKO_LAT HKO_LON HKO_CAT HKO_WIND HKO_PRES NEWDELHI_LAT NEWDELHI_LON NEWDELHI_GRADE NEWDELHI_WIND NEWDELHI_PRES NEWDELHI_CI NEWDELHI_DP NEWDELHI_POCI REUNION_LAT REUNION_LON REUNION_TYPE REUNION_WIND REUNION_PRES REUNION_TNUM REUNION_CI REUNION_RMW REUNION_R34_NE REUNION_R34_SE REUNION_R34_SW REUNION_R34_NW REUNION_R50_NE REUNION_R50_SE REUNION_R50_SW REUNION_R50_NW REUNION_R64_NE REUNION_R64_SE REUNION_R64_SW REUNION_R64_NW BOM_LAT BOM_LON BOM_TYPE BOM_WIND BOM_PRES BOM_TNUM BOM_CI BOM_RMW BOM_R34_NE BOM_R34_SE BOM_R34_SW BOM_R34_NW BOM_R50_NE BOM_R50_SE BOM_R50_SW BOM_R50_NW BOM_R64_NE BOM_R64_SE BOM_R64_SW BOM_R64_NW BOM_ROCI BOM_POCI BOM_EYE BOM_POS_METHOD BOM_PRES_METHOD NADI_LAT NADI_LON NADI_CAT NADI_WIND NADI_PRES WELLINGTON_LAT WELLINGTON_LON WELLINGTON_WIND WELLINGTON_PRES DS824_LAT DS824_LON DS824_STAGE DS824_WIND DS824_PRES TD9636_LAT TD9636_LON TD9636_STAGE TD9636_WIND TD9636_PRES TD9635_LAT TD9635_LON TD9635_WIND TD9635_PRES TD9635_ROCI NEUMANN_LAT NEUMANN_LON NEUMANN_CLASS NEUMANN_WIND NEUMANN_PRES MLC_LAT MLC_LON MLC_CLASS MLC_WIND MLC_PRES USA_GUST BOM_GUST BOM_GUST_PER REUNION_GUST REUNION_GUST_PER USA_SEAHGT USA_SEARAD_NE USA_SEARAD_SE USA_SEARAD_SW USA_SEARAD_NW STORM_SPEED STORM_DIR
1902335S09425 1903 52 SI MM NOT_NAMED 1902-11-30 18:00:00 NR -9.30000 65.0000 main 1440 1435 __________O___ -1 -9.30000 65.0000 7 2 262
1902335S09425 1903 52 SI MM NOT_NAMED 1902-11-30 21:00:00 NR -9.31404 64.9000 main 1435 1429 __________P___ -1 -9.31404 64.9000 7 2 261
1902335S09425 1903 52 SI MM NOT_NAMED 1902-12-01 00:00:00 NR -9.33247 64.7900 main 1429 1414 __________P___ -1 -9.33247 64.7900 7 2 259
1902335S09425 1903 52 SI MM NOT_NAMED 1902-12-01 03:00:00 NR -9.35966 64.6600 main 1414 1402 __________P___ -1 -9.35966 64.6600 7 3 257
1902335S09425 1903 52 SI MM NOT_NAMED 1902-12-01 06:00:00 NR -9.40000 64.5000 main 1402 1382 __________O___ -1 -9.40000 64.5000 7 4 255
1902335S09425 1903 52 SI MM NOT_NAMED 1902-12-01 09:00:00 NR -9.45659 64.3038 main 1382 1371 __________P___ -1 -9.45659 64.3038 7 4 253
1902335S09425 1903 52 SI MM NOT_NAMED 1902-12-01 12:00:00 NR -9.52754 64.0800 main 1371 1350 __________P___ -1 -9.52754 64.0800 7 5 251
1902335S09425 1903 52 SI MM NOT_NAMED 1902-12-01 15:00:00 NR -9.60971 63.8412 main 1345 1325 __________P___ -1 -9.60971 63.8412 7 5 250
1902335S09425 1903 52 SI MM NOT_NAMED 1902-12-01 18:00:00 NR -9.70000 63.6000 main 1325 1305 __________O___ -1 -9.70000 63.6000 7 5 247
1902335S09425 1903 52 SI MM NOT_NAMED 1902-12-01 21:00:00 NR -9.79679 63.3831 main 1305 1285 __________P___ -1 -9.79679 63.3831 7 5 245
1902335S09425 1903 52 SI MM NOT_NAMED 1902-12-02 00:00:00 NR -9.89987 63.1650 main 1285 1265 __________P___ -1 -9.89987 63.1650 7 5 245
1902335S09425 1903 52 SI MM NOT_NAMED 1902-12-02 03:00:00 NR -10.0030 62.9394 main 1260 1241 __________P___ -1 -10.0030 62.9394 7 5 246
1902335S09425 1903 52 SI MM NOT_NAMED 1902-12-02 06:00:00 NR -10.1000 62.7000 main 1241 1221 __________O___ -1 -10.1000 62.7000 7 5 250
1902335S09425 1903 52 SI MM NOT_NAMED 1902-12-02 09:00:00 NR -10.1781 62.4393 main 1217 1208 __________P___ -1 -10.1781 62.4393 7 5 254
1902335S09425 1903 52 SI MM NOT_NAMED 1902-12-02 12:00:00 NR -10.2500 62.1649 main 1208 1185 __________P___ -1 -10.2500 62.1649 7 6 255
1902335S09425 1903 52 SI MM NOT_NAMED 1902-12-02 15:00:00 NR -10.3218 61.8830 main 1185 1163 __________P___ -1 -10.3218 61.8830 7 6 255
1902335S09425 1903 52 SI MM NOT_NAMED 1902-12-02 18:00:00 NR -10.4000 61.6000 main 1163 1141 __________O___ -1 -10.4000 61.6000 7 6 253
1902335S09425 1903 52 SI MM NOT_NAMED 1902-12-02 21:00:00 NR -10.4887 61.3290 main 1141 1123 __________P___ -1 -10.4887 61.3290 7 6 251
1902335S09425 1903 52 SI MM NOT_NAMED 1902-12-03 00:00:00 NR -10.5849 61.0574 main 1123 1103 __________P___ -1 -10.5849 61.0574 7 6 250
1902335S09425 1903 52 SI MM NOT_NAMED 1902-12-03 03:00:00 NR -10.6886 60.7821 main 1103 1083 __________P___ -1 -10.6886 60.7821 7 6 249
1902335S09425 1903 52 SI MM NOT_NAMED 1902-12-03 06:00:00 NR -10.8000 60.5000 main 1083 1063 __________O___ -1 -10.8000 60.5000 7 6 247
1902335S09425 1903 52 SI MM NOT_NAMED 1902-12-03 09:00:00 NR -10.9176 60.2233 main 1063 1047 __________P___ -1 -10.9176 60.2233 7 6 246
1902335S09425 1903 52 SI MM NOT_NAMED 1902-12-03 12:00:00 NR -11.0422 59.9374 main 1045 1018 __________P___ -1 -11.0422 59.9374 7 6 246
1902335S09425 1903 52 SI MM NOT_NAMED 1902-12-03 15:00:00 NR -11.1707 59.6327 main 1016 999 __________P___ -1 -11.1707 59.6327 7 7 248
1902335S09425 1903 52 SI MM NOT_NAMED 1902-12-03 18:00:00 NR -11.3000 59.3000 main 999 982 __________O___ -1 -11.3000 59.3000 7 7 250
1902335S09425 1903 52 SI MM NOT_NAMED 1902-12-03 21:00:00 NR -11.4251 58.9206 main 982 947 __________P___ -1 -11.4251 58.9206 7 8 252
1902335S09425 1903 52 SI MM NOT_NAMED 1902-12-04 00:00:00 NR -11.5501 58.5150 main 944 899 __________P___ -1 -11.5501 58.5150 7 8 253
1902335S09425 1903 52 SI MM NOT_NAMED 1902-12-04 03:00:00 NR -11.6751 58.1018 main 899 854 __________P___ -1 -11.6751 58.1018 7 8 253
1902335S09425 1903 52 SI MM NOT_NAMED 1902-12-04 06:00:00 NR -11.8000 57.7000 main 854 819 __________O___ -1 -11.8000 57.7000 7 8 251
1902335S09425 1903 52 SI MM NOT_NAMED 1902-12-04 09:00:00 NR -11.9247 57.3436 main 809 774 __________P___ -1 -11.9247 57.3436 7 7 250
1902335S09425 1903 52 SI MM NOT_NAMED 1902-12-04 12:00:00 NR -12.0496 56.9998 main 774 737 __________P___ -1 -12.0496 56.9998 7 7 250
1902335S09425 1903 52 SI MM NOT_NAMED 1902-12-04 15:00:00 NR -12.1747 56.6561 main 737 692 __________P___ -1 -12.1747 56.6561 7 7 250
1902335S09425 1903 52 SI MM NOT_NAMED 1902-12-04 18:00:00 NR -12.3000 56.3000 main 692 647 __________O___ -1 -12.3000 56.3000 7 8 251
1902335S09425 1903 52 SI MM NOT_NAMED 1902-12-04 21:00:00 NR -12.4292 55.8941 main 647 600 __________P___ -1 -12.4292 55.8941 7 8 252
1902335S09425 1903 52 SI MM NOT_NAMED 1902-12-05 00:00:00 NR -12.5577 55.4776 main 600 555 __________P___ -1 -12.5577 55.4776 7 8 252
1902335S09425 1903 52 SI MM NOT_NAMED 1902-12-05 03:00:00 NR -12.6823 55.0722 main 555 510 __________P___ -1 -12.6823 55.0722 7 8 252
1902335S09425 1903 52 SI MM NOT_NAMED 1902-12-05 06:00:00 NR -12.8000 54.7000 main 510 476 __________O___ -1 -12.8000 54.7000 7 7 251
1902335S09425 1903 52 SI MM NOT_NAMED 1902-12-05 09:00:00 NR -12.9068 54.3929 main 476 442 __________P___ -1 -12.9068 54.3929 7 6 250
1902335S09425 1903 52 SI MM NOT_NAMED 1902-12-05 12:00:00 NR -13.0071 54.1198 main 442 418 __________P___ -1 -13.0071 54.1198 7 6 249
1902335S09425 1903 52 SI MM NOT_NAMED 1902-12-05 15:00:00 NR -13.1038 53.8617 main 418 384 __________P___ -1 -13.1038 53.8617 7 5 249
1902335S09425 1903 52 SI MM NOT_NAMED 1902-12-05 18:00:00 NR -13.2000 53.6000 main 384 350 __________O___ -1 -13.2000 53.6000 7 6 250
1902335S09425 1903 52 SI MM NOT_NAMED 1902-12-05 21:00:00 NR -13.3041 53.2869 main 350 316 __________P___ -1 -13.3041 53.2869 7 6 251
1902335S09425 1903 52 SI MM NOT_NAMED 1902-12-06 00:00:00 NR -13.4076 52.9701 main 316 283 __________P___ -1 -13.4076 52.9701 7 6 251
1902335S09425 1903 52 SI MM NOT_NAMED 1902-12-06 03:00:00 NR -13.5073 52.6682 main 283 249 __________P___ -1 -13.5073 52.6682 7 6 251
1902335S09425 1903 52 SI MM NOT_NAMED 1902-12-06 06:00:00 NR -13.6000 52.4000 main 249 227 __________O___ -1 -13.6000 52.4000 7 5 250
1902335S09425 1903 52 SI MM NOT_NAMED 1902-12-06 09:00:00 NR -13.6779 52.1889 main 227 205 __________P___ -1 -13.6779 52.1889 7 4 248
1902335S09425 1903 52 SI MM NOT_NAMED 1902-12-06 12:00:00 NR -13.7498 52.0123 main 205 194 __________P___ -1 -13.7498 52.0123 7 4 246
1902335S09425 1903 52 SI MM NOT_NAMED 1902-12-06 15:00:00 NR -13.8217 51.8546 main 194 172 __________P___ -1 -13.8217 51.8546 7 3 244
1902335S09425 1903 52 SI MM NOT_NAMED 1902-12-06 18:00:00 NR -13.9000 51.7000 main 172 161 __________O___ -1 -13.9000 51.7000 7 3 240
1902335S09425 1903 52 SI MM NOT_NAMED 1902-12-06 21:00:00 NR -13.9803 51.5653 main 161 140 __________P___ -1 -13.9803 51.5653 7 3 238
1902335S09425 1903 52 SI MM NOT_NAMED 1902-12-07 00:00:00 NR -14.0695 51.4245 main 140 126 __________P___ -1 -14.0695 51.4245 7 4 238
1902335S09425 1903 52 SI MM NOT_NAMED 1902-12-07 03:00:00 NR -14.1739 51.2465 main 116 92 __________P___ -1 -14.1739 51.2465 7 5 241
1902335S09425 1903 52 SI MM NOT_NAMED 1902-12-07 06:00:00 NR -14.3000 51.0000 main 92 48 __________O___ -1 -14.3000 51.0000 7 7 247
1902335S09425 1903 52 SI MM NOT_NAMED 1902-12-07 09:00:00 NR -14.4296 50.6265 main 48 0 __________P___ -1 -14.4296 50.6265 7 8 250
1902335S09425 1903 52 SI MM NOT_NAMED 1902-12-07 12:00:00 NR -14.5832 50.1874 main 0 0 __________P___ -1 -14.5832 50.1874 7 9 249
1902335S09425 1903 52 SI MM NOT_NAMED 1902-12-07 15:00:00 NR -14.7702 49.7296 main 0 0 __________P___ -1 -14.7702 49.7296 7 10 244
1902335S09425 1903 52 SI MM NOT_NAMED 1902-12-07 18:00:00 NR -15.0000 49.3000 main 0 0 __________O___ -1 -15.0000 49.3000 7 9 237
1902335S09425 1903 52 SI MM NOT_NAMED 1902-12-07 21:00:00 NR -15.2448 48.9755 main 0 0 __________P___ -1 -15.2448 48.9755 7 8 228
1902335S09425 1903 52 SI MM NOT_NAMED 1902-12-08 00:00:00 NR -15.5369 48.6837 main 0 0 __________P___ -1 -15.5369 48.6837 7 9 221
1902335S09425 1903 52 SI MM NOT_NAMED 1902-12-08 03:00:00 NR -15.8855 48.4002 main 0 0 __________P___ -1 -15.8855 48.4002 7 10 216
1902335S09425 1903 52 SI MM NOT_NAMED 1902-12-08 06:00:00 NR -16.3000 48.1000 main 0 0 __________O___ -1 -16.3000 48.1000 7 11 218
1902335S09425 1903 52 SI MM NOT_NAMED 1902-12-08 09:00:00 NR -16.7454 47.6869 main 0 0 __________P___ -1 -16.7454 47.6869 7 13 220
1902335S09425 1903 52 SI MM NOT_NAMED 1902-12-08 12:00:00 NR -17.2585 47.2620 main 0 0 __________P___ -1 -17.2585 47.2620 7 13 215
1902335S09425 1903 52 SI MM NOT_NAMED 1902-12-08 15:00:00 NR -17.8423 46.8810 main 0 0 __________P___ -1 -17.8423 46.8810 7 14 207
1902335S09425 1903 52 SI MM NOT_NAMED 1902-12-08 18:00:00 NR -18.5000 46.6000 main 0 0 __________O___ -1 -18.5000 46.6000 7 15 195
1902335S09425 1903 52 SI MM NOT_NAMED 1902-12-08 21:00:00 NR -19.2965 46.4627 main 0 0 __________P___ -1 -19.2965 46.4627 7 17 185
1902335S09425 1903 52 SI MM NOT_NAMED 1902-12-09 00:00:00 NR -20.1518 46.4336 main 0 0 __________P___ -1 -20.1518 46.4336 7 17 0
1902335S09425 1903 52 SI MM NOT_NAMED 1902-12-09 03:00:00 NR -20.9812 46.4878 main 0 0 __________P___ -1 -20.9812 46.4878 7 16 174
1902335S09425 1903 52 SI MM NOT_NAMED 1902-12-09 06:00:00 NR -21.7000 46.6000 main 0 0 __________O___ -1 -21.7000 46.6000 7 13 170
1902335S09425 1903 52 SI MM NOT_NAMED 1902-12-09 09:00:00 NR -22.2052 46.7203 main 0 0 __________P___ -1 -22.2052 46.7203 7 9 163
1902335S09425 1903 52 SI MM NOT_NAMED 1902-12-09 12:00:00 NR -22.5923 46.8898 main 0 0 __________P___ -1 -22.5923 46.8898 7 8 154
1902335S09425 1903 52 SI MM NOT_NAMED 1902-12-09 15:00:00 NR -22.9083 47.0894 main 0 0 __________P___ -1 -22.9083 47.0894 7 7 148
1902335S09425 1903 52 SI MM NOT_NAMED 1902-12-09 18:00:00 NR -23.2000 47.3000 main 0 0 __________O___ -1 -23.2000 47.3000 7 7 147
1902335S09425 1903 52 SI MM NOT_NAMED 1902-12-09 21:00:00 NR -23.5054 47.5063 main 0 0 __________P___ -1 -23.5054 47.5063 7 7 149
1902335S09425 1903 52 SI MM NOT_NAMED 1902-12-10 00:00:00 NR -23.8277 47.7069 main 20 20 __________P___ -1 -23.8277 47.7069 7 8 151
1902335S09425 1903 52 SI MM NOT_NAMED 1902-12-10 03:00:00 NR -24.1612 47.9040 main 46 46 __________P___ -1 -24.1612 47.9040 7 8 152
1902335S09425 1903 52 SI MM NOT_NAMED 1902-12-10 06:00:00 NR -24.5000 48.1000 main 78 __________O___ -1 -24.5000 48.1000 7 8 153

About IBTrACS Database

This database is a web-friendly format of International Best Track Archive for Climate Stewardship (IBTrACS), a global best track data archive curated by NOAA dating back to 1842.

Updated: 2021-11-26